createdAt,value
2022-12-09T00:00:44.025Z,9.32
2022-12-09T00:03:10.876Z,8.90
2022-12-09T00:05:40.230Z,8.93
2022-12-09T00:08:07.023Z,9.43
2022-12-09T00:10:33.849Z,10.32
2022-12-09T00:13:00.332Z,10.20
2022-12-09T00:15:26.902Z,9.30
2022-12-09T00:17:53.942Z,7.60
2022-12-09T00:20:20.469Z,8.63
2022-12-09T00:22:47.044Z,8.82
2022-12-09T00:25:13.572Z,9.40
2022-12-09T00:27:40.077Z,9.88
2022-12-09T00:30:08.031Z,8.80
2022-12-09T00:32:34.873Z,8.30
2022-12-09T00:35:01.975Z,7.97
2022-12-09T00:37:28.734Z,9.10
2022-12-09T00:39:55.424Z,9.73
2022-12-09T00:42:22.069Z,8.90
2022-12-09T00:44:48.749Z,7.28
2022-12-09T00:47:15.357Z,6.70
2022-12-09T00:49:41.948Z,7.22
2022-12-09T00:52:08.419Z,7.88
2022-12-09T00:54:35.060Z,6.63
2022-12-09T00:57:01.846Z,7.45
2022-12-09T00:59:28.567Z,7.00
2022-12-09T01:01:55.157Z,7.25
2022-12-09T01:04:22.056Z,6.78
2022-12-09T01:06:48.552Z,6.47
2022-12-09T01:09:15.118Z,7.28
2022-12-09T01:11:41.778Z,8.23
2022-12-09T01:14:08.468Z,7.95
2022-12-09T01:16:35.409Z,7.70
2022-12-09T01:19:06.362Z,7.43
2022-12-09T01:21:34.437Z,8.10
2022-12-09T01:24:02.242Z,7.22
2022-12-09T01:26:28.780Z,7.45
2022-12-09T01:28:57.502Z,7.75
2022-12-09T01:31:25.119Z,7.20
2022-12-09T01:33:53.645Z,6.72
2022-12-09T01:36:26.886Z,6.85
2022-12-09T01:38:54.146Z,7.25
2022-12-09T01:41:22.197Z,7.85
2022-12-09T01:44:07.482Z,7.27
2022-12-09T01:46:34.154Z,6.95
2022-12-09T01:49:00.924Z,6.57
2022-12-09T01:51:29.811Z,6.88
2022-12-09T01:53:57.177Z,7.38
2022-12-09T01:56:29.270Z,7.10
2022-12-09T01:58:58.514Z,7.47
2022-12-09T02:01:25.332Z,7.00
2022-12-09T02:03:52.059Z,5.95
2022-12-09T02:06:19.115Z,5.07
2022-12-09T02:08:46.692Z,6.57
2022-12-09T02:11:19.427Z,6.97
2022-12-09T02:14:08.231Z,8.05
2022-12-09T02:16:44.946Z,7.32
2022-12-09T02:19:34.396Z,7.35
2022-12-09T02:22:01.243Z,7.43
2022-12-09T02:24:55.549Z,7.25
2022-12-09T02:27:31.152Z,6.43
2022-12-09T02:30:17.748Z,8.15
2022-12-09T02:32:57.049Z,7.53
2022-12-09T02:35:34.826Z,5.77
2022-12-09T02:38:25.911Z,6.90
2022-12-09T02:41:04.303Z,7.00
2022-12-09T02:43:35.747Z,6.18
2022-12-09T02:46:04.404Z,6.57
2022-12-09T02:48:35.730Z,7.20
2022-12-09T02:51:10.729Z,6.47
2022-12-09T02:53:39.716Z,6.25
2022-12-09T02:56:08.300Z,6.57
2022-12-09T02:58:35.218Z,6.75
2022-12-09T03:01:02.061Z,6.27
2022-12-09T03:03:33.825Z,6.60
2022-12-09T03:06:08.855Z,6.03
2022-12-09T03:08:38.976Z,6.55
2022-12-09T03:11:12.052Z,6.07
2022-12-09T03:13:51.951Z,5.93
2022-12-09T03:16:37.651Z,6.78
2022-12-09T03:19:35.136Z,6.32
2022-12-09T03:22:08.774Z,5.95
2022-12-09T03:24:42.936Z,5.22
2022-12-09T03:27:15.149Z,5.73
2022-12-09T03:29:46.298Z,6.20
2022-12-09T03:32:17.374Z,6.10
2022-12-09T03:34:46.859Z,5.85
2022-12-09T03:37:17.449Z,5.63
2022-12-09T03:39:45.659Z,5.70
2022-12-09T03:42:20.684Z,5.70
2022-12-09T03:44:56.079Z,5.22
2022-12-09T03:47:22.968Z,4.80
2022-12-09T03:49:50.011Z,5.60
2022-12-09T03:52:21.229Z,5.97
2022-12-09T03:54:53.549Z,6.22
2022-12-09T03:57:21.509Z,5.72
2022-12-09T03:59:55.321Z,5.68
2022-12-09T04:02:22.484Z,5.95
2022-12-09T04:04:49.510Z,5.90
2022-12-09T04:07:16.842Z,5.30
2022-12-09T04:09:43.831Z,5.85
2022-12-09T04:12:10.388Z,5.00
2022-12-09T04:14:37.078Z,5.05
2022-12-09T04:17:04.132Z,5.20
2022-12-09T04:19:30.821Z,5.40
2022-12-09T04:21:57.586Z,5.32
2022-12-09T04:24:24.325Z,5.88
2022-12-09T04:26:51.437Z,5.40
2022-12-09T04:29:18.357Z,5.40
2022-12-09T04:31:44.947Z,5.80
2022-12-09T04:34:12.076Z,6.10
2022-12-09T04:36:39.065Z,5.60
2022-12-09T04:39:06.973Z,4.57
2022-12-09T04:41:33.582Z,4.80
2022-12-09T04:44:01.335Z,4.65
2022-12-09T04:46:28.370Z,5.05
2022-12-09T04:48:55.017Z,6.30
2022-12-09T04:51:21.949Z,4.50
2022-12-09T04:53:48.748Z,5.20
2022-12-09T04:56:21.475Z,5.43
2022-12-09T04:58:49.429Z,5.63
2022-12-09T05:01:28.200Z,5.63
2022-12-09T05:03:57.114Z,5.65
2022-12-09T05:06:24.523Z,4.83
2022-12-09T05:08:51.523Z,5.28
2022-12-09T05:11:19.923Z,5.50
2022-12-09T05:13:47.206Z,5.57
2022-12-09T05:16:17.129Z,5.65
2022-12-09T05:18:45.617Z,6.80
2022-12-09T05:21:15.407Z,6.07
2022-12-09T05:23:42.529Z,5.95
2022-12-09T05:26:13.208Z,5.85
2022-12-09T05:28:40.421Z,5.47
2022-12-09T05:31:11.441Z,4.43
2022-12-09T05:33:38.630Z,5.10
2022-12-09T05:36:09.953Z,5.50
2022-12-09T05:38:37.013Z,5.63
2022-12-09T05:41:04.068Z,5.30
2022-12-09T05:43:31.705Z,5.53
2022-12-09T05:45:58.972Z,4.78
2022-12-09T05:48:25.857Z,5.40
2022-12-09T05:51:01.259Z,4.65
2022-12-09T05:53:28.586Z,4.70
2022-12-09T05:55:56.001Z,5.17
2022-12-09T05:58:23.416Z,6.07
2022-12-09T06:00:50.335Z,5.50
2022-12-09T06:03:17.896Z,5.28
2022-12-09T06:05:45.121Z,6.00
2022-12-09T06:08:12.099Z,6.50
2022-12-09T06:10:40.637Z,6.13
2022-12-09T06:13:08.649Z,5.65
2022-12-09T06:15:35.859Z,6.55
2022-12-09T06:18:03.016Z,6.32
2022-12-09T06:20:29.976Z,6.63
2022-12-09T06:22:57.545Z,5.32
2022-12-09T06:25:24.201Z,6.20
2022-12-09T06:27:53.953Z,7.72
2022-12-09T06:30:21.003Z,9.30
2022-12-09T06:32:47.752Z,7.73
2022-12-09T06:35:15.427Z,7.28
2022-12-09T06:37:42.461Z,8.90
2022-12-09T06:40:10.254Z,7.93
2022-12-09T06:42:37.099Z,8.98
2022-12-09T06:45:04.219Z,9.00
2022-12-09T06:47:31.389Z,9.10
2022-12-09T06:50:06.685Z,9.68
2022-12-09T06:52:33.781Z,8.60
2022-12-09T06:55:01.439Z,8.57
2022-12-09T06:57:28.179Z,9.13
2022-12-09T06:59:55.611Z,9.68
2022-12-09T07:02:22.688Z,8.90
2022-12-09T07:04:56.388Z,10.45
2022-12-09T07:07:23.316Z,9.88
2022-12-09T07:09:50.463Z,10.63
2022-12-09T07:12:17.730Z,10.32
2022-12-09T07:14:44.412Z,11.45
2022-12-09T07:17:19.411Z,8.98
2022-12-09T07:19:47.562Z,9.23
2022-12-09T07:22:15.239Z,9.67
2022-12-09T07:24:42.604Z,10.07
2022-12-09T07:27:17.236Z,9.82
2022-12-09T07:29:46.353Z,9.70
2022-12-09T07:32:13.142Z,11.07
2022-12-09T07:34:40.032Z,12.23
2022-12-09T07:37:07.175Z,9.20
2022-12-09T07:39:34.152Z,9.52
2022-12-09T07:42:00.965Z,10.95
2022-12-09T07:44:28.415Z,9.27
2022-12-09T07:46:55.883Z,9.37
2022-12-09T07:49:23.181Z,9.23
2022-12-09T07:51:50.240Z,9.02
2022-12-09T07:54:19.042Z,9.82
2022-12-09T07:56:46.293Z,9.32
2022-12-09T07:59:15.334Z,8.67
2022-12-09T08:01:42.863Z,7.18
2022-12-09T08:04:10.278Z,6.80
2022-12-09T08:06:37.944Z,7.47
2022-12-09T08:09:08.202Z,10.38
2022-12-09T08:11:35.034Z,8.83
2022-12-09T08:14:11.457Z,8.63
2022-12-09T08:16:40.285Z,7.97
2022-12-09T08:19:07.975Z,7.35
2022-12-09T08:21:35.160Z,8.95
2022-12-09T08:24:03.759Z,9.03
2022-12-09T08:26:32.532Z,7.68
2022-12-09T08:29:00.067Z,8.13
2022-12-09T08:31:28.524Z,7.97
2022-12-09T08:33:56.820Z,8.45
2022-12-09T08:36:27.427Z,10.13
2022-12-09T08:38:55.314Z,10.93
2022-12-09T08:41:37.841Z,9.73
2022-12-09T08:44:07.120Z,6.85
2022-12-09T08:46:35.470Z,6.93
2022-12-09T08:49:02.919Z,7.00
2022-12-09T08:51:30.462Z,6.97
2022-12-09T08:53:58.718Z,7.70
2022-12-09T08:56:26.279Z,7.65
2022-12-09T08:58:54.084Z,9.98
2022-12-09T09:01:36.120Z,9.77
2022-12-09T09:04:06.462Z,8.30
2022-12-09T09:06:34.203Z,8.48
2022-12-09T09:09:01.236Z,9.82
2022-12-09T09:11:28.787Z,7.30
2022-12-09T09:13:55.389Z,7.20
2022-12-09T09:16:24.756Z,6.88
2022-12-09T09:18:52.533Z,6.82
2022-12-09T09:21:22.555Z,5.10
2022-12-09T09:23:49.599Z,6.35
2022-12-09T09:26:25.978Z,5.40
2022-12-09T09:28:54.392Z,6.15
2022-12-09T09:31:23.354Z,5.65
2022-12-09T09:33:51.176Z,5.50
2022-12-09T09:36:21.842Z,5.55
2022-12-09T09:38:49.973Z,6.37
2022-12-09T09:41:31.934Z,6.88
2022-12-09T09:43:59.397Z,6.68
2022-12-09T09:46:48.898Z,6.88
2022-12-09T09:49:34.599Z,6.82
2022-12-09T09:52:07.296Z,6.37
2022-12-09T09:54:34.388Z,7.38
2022-12-09T09:57:05.240Z,6.80
2022-12-09T09:59:38.297Z,7.07
2022-12-09T10:02:18.251Z,6.95
2022-12-09T10:05:07.012Z,6.83
2022-12-09T10:07:43.680Z,7.18
2022-12-09T10:10:20.572Z,8.13
2022-12-09T10:13:02.784Z,7.88
2022-12-09T10:16:11.468Z,7.85
2022-12-09T10:19:05.988Z,7.83
2022-12-09T10:21:40.373Z,8.77
2022-12-09T10:24:24.192Z,7.75
2022-12-09T10:27:00.081Z,8.05
2022-12-09T10:29:45.300Z,7.90
2022-12-09T10:32:20.882Z,8.10
2022-12-09T10:34:48.744Z,8.77
2022-12-09T10:37:25.860Z,8.25
2022-12-09T10:40:16.637Z,9.50
2022-12-09T10:43:08.053Z,8.52
2022-12-09T10:46:15.520Z,9.03
2022-12-09T10:48:39.601Z,9.82
2022-12-09T10:51:16.911Z,8.68
2022-12-09T10:53:48.937Z,9.40
2022-12-09T10:56:28.455Z,9.60
2022-12-09T10:59:13.665Z,11.03
2022-12-09T11:02:02.051Z,10.48
2022-12-09T11:04:36.169Z,9.77
2022-12-09T11:07:12.100Z,9.50
2022-12-09T11:09:43.694Z,9.30
2022-12-09T11:12:32.102Z,10.10
2022-12-09T11:15:06.976Z,9.55
2022-12-09T11:17:55.859Z,8.70
2022-12-09T11:20:27.434Z,9.52
2022-12-09T11:23:06.411Z,9.20
2022-12-09T11:25:36.238Z,9.67
2022-12-09T11:28:23.846Z,9.68
2022-12-09T11:31:34.264Z,9.27
2022-12-09T11:34:06.516Z,8.43
2022-12-09T11:36:37.280Z,9.15
2022-12-09T11:39:25.856Z,9.23
2022-12-09T11:42:17.128Z,9.27
2022-12-09T11:45:00.193Z,8.30
2022-12-09T11:48:21.523Z,8.43
2022-12-09T11:50:32.505Z,9.73
2022-12-09T11:53:11.290Z,8.40
2022-12-09T11:56:03.996Z,9.63
2022-12-09T11:58:48.307Z,9.20
2022-12-09T12:01:28.173Z,8.48
2022-12-09T12:04:05.656Z,9.55
2022-12-09T12:06:47.014Z,10.27
2022-12-09T12:09:29.763Z,8.32
2022-12-09T12:12:06.742Z,9.07
2022-12-09T12:14:36.629Z,8.23
2022-12-09T12:17:31.984Z,9.85
2022-12-09T12:19:58.468Z,8.90
2022-12-09T12:22:54.943Z,9.30
2022-12-09T12:25:40.173Z,9.52
2022-12-09T12:28:35.780Z,9.07
2022-12-09T12:31:07.871Z,8.20
2022-12-09T12:36:47.778Z,9.43
2022-12-09T12:39:23.319Z,8.75
2022-12-09T12:42:27.392Z,8.52
2022-12-09T12:45:39.469Z,7.90
2022-12-09T12:48:33.989Z,8.97
2022-12-09T12:51:18.959Z,9.23
2022-12-09T12:54:07.468Z,8.63
2022-12-09T12:56:45.374Z,8.65
2022-12-09T12:59:22.843Z,8.98
2022-12-09T13:01:53.737Z,8.33
2022-12-09T13:04:23.300Z,7.95
2022-12-09T13:07:02.985Z,8.25
2022-12-09T13:09:47.392Z,7.57
2022-12-09T13:12:42.802Z,8.23
2022-12-09T13:15:14.278Z,9.30
2022-12-09T13:17:42.905Z,8.77
2022-12-09T13:20:20.586Z,9.20
2022-12-09T13:22:56.176Z,9.32
2022-12-09T13:25:40.881Z,9.75
2022-12-09T13:28:23.056Z,8.87
2022-12-09T13:30:54.724Z,8.13
2022-12-09T13:33:38.306Z,10.35
2022-12-09T13:36:16.641Z,8.43
2022-12-09T13:38:43.417Z,9.38
2022-12-09T13:41:59.918Z,9.20
2022-12-09T13:44:32.549Z,9.40
2022-12-09T13:47:26.015Z,9.57
2022-12-09T13:49:59.496Z,9.68
2022-12-09T13:52:42.521Z,8.77
2022-12-09T13:55:30.671Z,9.27
2022-12-09T13:58:14.581Z,9.25
2022-12-09T14:00:43.588Z,9.52
2022-12-09T14:03:30.836Z,8.57
2022-12-09T14:06:00.282Z,9.18
2022-12-09T14:08:32.105Z,9.30
2022-12-09T14:10:59.286Z,8.63
2022-12-09T14:13:35.535Z,8.70
2022-12-09T14:16:28.829Z,8.10
2022-12-09T14:18:56.780Z,7.70
2022-12-09T14:21:28.960Z,7.63
2022-12-09T14:24:07.584Z,8.70
2022-12-09T14:26:54.305Z,8.93
2022-12-09T14:29:42.587Z,8.48
2022-12-09T14:32:31.565Z,8.63
2022-12-09T14:35:03.780Z,8.30
2022-12-09T14:37:53.218Z,8.35
2022-12-09T14:40:29.717Z,9.23
2022-12-09T14:43:02.000Z,8.32
2022-12-09T14:45:42.703Z,8.07
2022-12-09T14:48:11.758Z,8.80
2022-12-09T14:50:38.912Z,8.07
2022-12-09T14:53:19.995Z,8.93
2022-12-09T14:55:46.712Z,7.97
2022-12-09T14:58:20.426Z,9.60
2022-12-09T15:00:47.297Z,10.13
2022-12-09T15:03:33.331Z,9.23
2022-12-09T15:06:22.666Z,10.75
2022-12-09T15:08:53.174Z,10.88
2022-12-09T15:11:23.656Z,10.00
2022-12-09T15:13:54.030Z,7.97
2022-12-09T15:16:24.523Z,8.85
2022-12-09T15:18:52.381Z,9.25
2022-12-09T15:21:30.940Z,9.23
2022-12-09T15:23:59.356Z,9.02
2022-12-09T15:26:32.179Z,9.30
2022-12-09T15:29:05.237Z,8.65
2022-12-09T15:31:33.354Z,9.82
2022-12-09T15:34:15.692Z,9.45
2022-12-09T15:36:45.923Z,9.27
2022-12-09T15:39:20.540Z,8.83
2022-12-09T15:42:07.418Z,9.73
2022-12-09T15:44:55.653Z,10.63
2022-12-09T15:47:27.976Z,11.00
2022-12-09T15:50:15.124Z,10.73
2022-12-09T15:52:54.041Z,12.57
2022-12-09T15:55:26.495Z,10.25
2022-12-09T15:57:55.719Z,11.45
2022-12-09T16:00:22.519Z,10.23
2022-12-09T16:02:50.093Z,11.05
2022-12-09T16:05:23.066Z,10.50
2022-12-09T16:07:55.889Z,10.48
2022-12-09T16:10:26.604Z,10.77
2022-12-09T16:13:10.961Z,9.32
2022-12-09T16:15:58.066Z,9.80
2022-12-09T16:18:31.133Z,10.10
2022-12-09T16:21:15.889Z,10.23
2022-12-09T16:23:45.207Z,9.55
2022-12-09T16:26:25.013Z,9.52
2022-12-09T16:28:57.165Z,9.55
2022-12-09T16:31:24.183Z,12.10
2022-12-09T16:33:51.208Z,11.68
2022-12-09T16:36:21.491Z,12.48
2022-12-09T16:39:23.566Z,11.13
2022-12-09T16:41:52.728Z,11.95
2022-12-09T16:44:22.336Z,12.93
2022-12-09T16:46:48.949Z,11.68
2022-12-09T16:49:15.506Z,10.82
2022-12-09T16:51:42.074Z,10.77
2022-12-09T16:54:20.530Z,10.95
2022-12-09T16:56:47.503Z,10.53
2022-12-09T16:59:14.002Z,10.60
2022-12-09T17:01:42.193Z,10.43
2022-12-09T17:04:16.655Z,12.80
2022-12-09T17:06:43.532Z,12.02
2022-12-09T17:09:11.856Z,13.93
2022-12-09T17:11:38.457Z,12.48
2022-12-09T17:14:05.036Z,11.43
2022-12-09T17:16:32.754Z,11.15
2022-12-09T17:18:59.393Z,11.18
2022-12-09T17:21:25.995Z,11.03
2022-12-09T17:23:52.514Z,10.70
2022-12-09T17:26:20.377Z,10.20
2022-12-09T17:28:48.031Z,12.68
2022-12-09T17:31:20.722Z,10.98
2022-12-09T17:33:47.671Z,13.03
2022-12-09T17:36:16.488Z,13.98
2022-12-09T17:38:43.426Z,11.52
2022-12-09T17:41:14.751Z,13.48
2022-12-09T17:43:42.069Z,13.30
2022-12-09T17:46:10.459Z,15.03
2022-12-09T17:48:37.201Z,11.30
2022-12-09T17:51:12.658Z,11.50
2022-12-09T17:53:41.457Z,11.20
2022-12-09T17:56:19.962Z,13.48
2022-12-09T17:58:54.099Z,11.80
2022-12-09T18:01:23.345Z,14.90
2022-12-09T18:04:00.463Z,12.75
2022-12-09T18:06:31.674Z,11.90
2022-12-09T18:08:58.213Z,12.77
2022-12-09T18:11:24.877Z,12.10
2022-12-09T18:13:51.589Z,13.07
2022-12-09T18:16:18.452Z,13.95
2022-12-09T18:18:45.204Z,18.20
2022-12-09T18:21:15.915Z,14.98
2022-12-09T18:23:43.033Z,15.17
2022-12-09T18:26:14.064Z,12.80
2022-12-09T18:28:40.613Z,11.63
2022-12-09T18:31:08.708Z,10.98
2022-12-09T18:33:36.939Z,14.18
2022-12-09T18:36:08.366Z,15.43
2022-12-09T18:38:34.900Z,11.65
2022-12-09T18:41:01.562Z,12.20
2022-12-09T18:43:38.930Z,14.10
2022-12-09T18:46:08.801Z,13.23
2022-12-09T18:48:35.820Z,13.40
2022-12-09T18:51:02.630Z,15.50
2022-12-09T18:53:29.624Z,14.95
2022-12-09T18:55:56.100Z,14.13
2022-12-09T18:58:36.838Z,12.45
2022-12-09T19:01:16.410Z,11.00
2022-12-09T19:03:43.197Z,10.50
2022-12-09T19:06:36.835Z,10.13
2022-12-09T19:09:12.427Z,9.82
2022-12-09T19:11:40.670Z,9.75
2022-12-09T19:14:08.867Z,9.67
2022-12-09T19:16:35.839Z,12.05
2022-12-09T19:19:09.137Z,13.18
2022-12-09T19:21:36.752Z,11.20
2022-12-09T19:24:03.292Z,11.68
2022-12-09T19:26:32.264Z,12.33
2022-12-09T19:29:01.201Z,12.82
2022-12-09T19:31:30.472Z,11.98
2022-12-09T19:34:02.237Z,11.05
2022-12-09T19:36:30.845Z,10.98
2022-12-09T19:38:58.195Z,11.47
2022-12-09T19:41:24.727Z,11.10
2022-12-09T19:43:55.545Z,10.40
2022-12-09T19:46:22.505Z,11.15
2022-12-09T19:48:49.066Z,11.00
2022-12-09T19:51:17.529Z,11.63
2022-12-09T19:53:44.078Z,12.43
2022-12-09T19:56:13.080Z,10.93
2022-12-09T19:58:41.070Z,13.20
2022-12-09T20:01:12.485Z,12.95
2022-12-09T20:03:41.222Z,14.33
2022-12-09T20:06:10.900Z,14.90
2022-12-09T20:08:38.088Z,13.60
2022-12-09T20:11:09.099Z,12.68
2022-12-09T20:13:35.614Z,13.38
2022-12-09T20:16:06.921Z,13.27
2022-12-09T20:18:34.121Z,12.73
2022-12-09T20:21:06.066Z,11.98
2022-12-09T20:23:34.796Z,11.90
2022-12-09T20:26:10.956Z,12.77
2022-12-09T20:28:39.888Z,11.70
2022-12-09T20:31:09.445Z,14.82
2022-12-09T20:33:36.699Z,13.25
2022-12-09T20:36:07.552Z,13.02
2022-12-09T20:38:35.183Z,14.80
2022-12-09T20:41:11.639Z,12.43
2022-12-09T20:43:43.294Z,11.70
2022-12-09T20:46:12.836Z,12.07
2022-12-09T20:48:39.990Z,11.27
2022-12-09T20:51:08.736Z,11.57
2022-12-09T20:53:36.315Z,12.60
2022-12-09T20:56:03.966Z,12.25
2022-12-09T20:58:30.603Z,13.27
2022-12-09T21:01:05.105Z,13.15
2022-12-09T21:03:31.695Z,14.05
2022-12-09T21:05:58.608Z,12.67
2022-12-09T21:08:31.070Z,14.88
2022-12-09T21:11:05.433Z,14.85
2022-12-09T21:13:32.375Z,14.35
2022-12-09T21:16:07.610Z,13.85
2022-12-09T21:18:35.399Z,13.17
2022-12-09T21:21:02.557Z,12.93
2022-12-09T21:23:34.348Z,12.43
2022-12-09T21:26:06.396Z,11.25
2022-12-09T21:28:33.591Z,11.70
2022-12-09T21:31:25.881Z,12.83
2022-12-09T21:33:54.366Z,10.27
2022-12-09T21:36:26.818Z,12.00
2022-12-09T21:38:54.251Z,10.73
2022-12-09T21:41:23.396Z,12.32
2022-12-09T21:43:50.424Z,12.37
2022-12-09T21:46:22.673Z,13.75
2022-12-09T21:48:52.353Z,13.07
2022-12-09T21:51:20.311Z,11.35
2022-12-09T21:53:47.597Z,15.40
2022-12-09T21:56:20.226Z,12.67
2022-12-09T21:58:48.244Z,11.55
2022-12-09T22:01:18.485Z,13.32
2022-12-09T22:03:45.971Z,14.02
2022-12-09T22:06:12.667Z,13.18
2022-12-09T22:08:40.843Z,13.73
2022-12-09T22:11:15.728Z,12.00
2022-12-09T22:13:42.710Z,11.32
2022-12-09T22:16:11.975Z,10.60
2022-12-09T22:18:38.861Z,11.07
2022-12-09T22:21:28.094Z,11.43
2022-12-09T22:23:57.180Z,8.98
2022-12-09T22:26:24.332Z,10.20
2022-12-09T22:28:51.536Z,12.50
2022-12-09T22:31:23.193Z,10.93
2022-12-09T22:33:51.768Z,9.20
2022-12-09T22:36:19.216Z,9.93
2022-12-09T22:38:46.127Z,10.00
2022-12-09T22:41:19.087Z,10.45
2022-12-09T22:43:45.932Z,9.93
2022-12-09T22:46:22.306Z,10.13
2022-12-09T22:48:49.122Z,10.60
2022-12-09T22:51:18.517Z,10.07
2022-12-09T22:53:45.461Z,11.40
2022-12-09T22:56:12.573Z,10.02
2022-12-09T22:58:39.769Z,11.07
2022-12-09T23:01:15.206Z,10.63
2022-12-09T23:03:41.760Z,11.10
2022-12-09T23:06:09.010Z,11.77
2022-12-09T23:08:37.583Z,11.05
2022-12-09T23:11:11.323Z,9.83
2022-12-09T23:13:41.176Z,10.70
2022-12-09T23:16:11.713Z,11.30
2022-12-09T23:18:38.372Z,11.55
2022-12-09T23:21:10.859Z,10.85
2022-12-09T23:23:38.346Z,10.80
2022-12-09T23:26:07.967Z,11.48
2022-12-09T23:28:38.888Z,10.77
2022-12-09T23:31:08.976Z,11.15
2022-12-09T23:33:36.762Z,12.38
2022-12-09T23:36:11.744Z,12.30
2022-12-09T23:38:38.316Z,11.00
2022-12-09T23:41:05.417Z,11.80
2022-12-09T23:43:33.517Z,11.43
2022-12-09T23:46:15.343Z,11.90
2022-12-09T23:48:47.358Z,10.77
2022-12-09T23:51:26.214Z,10.77
2022-12-09T23:53:56.119Z,10.68
2022-12-09T23:56:25.525Z,11.27
2022-12-09T23:59:00.689Z,11.00
